sensor_id;sensor_type;location;lat;lon;timestamp;P1;durP1;ratioP1;P2;durP2;ratioP2
53497;SDS011;39382;47.168;16.008;2023-03-01T00:01:58;23.35;;;9.75;;
53497;SDS011;39382;47.168;16.008;2023-03-01T00:04:24;18.48;;;8.32;;
53497;SDS011;39382;47.168;16.008;2023-03-01T00:06:49;19.48;;;9.20;;
53497;SDS011;39382;47.168;16.008;2023-03-01T00:09:15;21.08;;;9.73;;
53497;SDS011;39382;47.168;16.008;2023-03-01T00:11:41;16.30;;;9.30;;
53497;SDS011;39382;47.168;16.008;2023-03-01T00:14:08;19.60;;;8.82;;
53497;SDS011;39382;47.168;16.008;2023-03-01T00:16:35;18.95;;;8.38;;
53497;SDS011;39382;47.168;16.008;2023-03-01T00:19:05;19.85;;;9.25;;
53497;SDS011;39382;47.168;16.008;2023-03-01T00:21:31;21.10;;;9.68;;
53497;SDS011;39382;47.168;16.008;2023-03-01T00:23:58;17.85;;;9.07;;
53497;SDS011;39382;47.168;16.008;2023-03-01T00:26:25;21.88;;;9.25;;
53497;SDS011;39382;47.168;16.008;2023-03-01T00:28:51;20.90;;;8.68;;
53497;SDS011;39382;47.168;16.008;2023-03-01T00:31:18;18.77;;;8.73;;
53497;SDS011;39382;47.168;16.008;2023-03-01T00:33:45;16.88;;;7.78;;
53497;SDS011;39382;47.168;16.008;2023-03-01T00:36:12;23.70;;;9.38;;
53497;SDS011;39382;47.168;16.008;2023-03-01T00:38:40;19.02;;;9.02;;
53497;SDS011;39382;47.168;16.008;2023-03-01T00:41:08;19.63;;;9.63;;
53497;SDS011;39382;47.168;16.008;2023-03-01T00:43:39;17.05;;;8.25;;
53497;SDS011;39382;47.168;16.008;2023-03-01T00:46:06;17.30;;;8.70;;
53497;SDS011;39382;47.168;16.008;2023-03-01T00:48:34;25.60;;;9.02;;
53497;SDS011;39382;47.168;16.008;2023-03-01T00:51:04;15.25;;;8.45;;
53497;SDS011;39382;47.168;16.008;2023-03-01T00:53:44;18.63;;;8.50;;
53497;SDS011;39382;47.168;16.008;2023-03-01T00:56:10;20.58;;;8.40;;
53497;SDS011;39382;47.168;16.008;2023-03-01T00:58:37;18.50;;;7.70;;
53497;SDS011;39382;47.168;16.008;2023-03-01T01:01:08;19.63;;;9.05;;
53497;SDS011;39382;47.168;16.008;2023-03-01T01:03:41;21.45;;;8.95;;
53497;SDS011;39382;47.168;16.008;2023-03-01T01:08:47;18.65;;;8.27;;
53497;SDS011;39382;47.168;16.008;2023-03-01T01:11:14;21.17;;;9.18;;
53497;SDS011;39382;47.168;16.008;2023-03-01T01:13:41;17.13;;;8.30;;
53497;SDS011;39382;47.168;16.008;2023-03-01T01:16:09;20.10;;;8.60;;
53497;SDS011;39382;47.168;16.008;2023-03-01T01:18:34;19.75;;;9.23;;
53497;SDS011;39382;47.168;16.008;2023-03-01T01:21:04;21.88;;;9.27;;
53497;SDS011;39382;47.168;16.008;2023-03-01T01:23:32;19.73;;;8.48;;
53497;SDS011;39382;47.168;16.008;2023-03-01T01:26:02;19.23;;;8.80;;
53497;SDS011;39382;47.168;16.008;2023-03-01T01:28:48;22.50;;;8.10;;
53497;SDS011;39382;47.168;16.008;2023-03-01T01:31:14;19.77;;;10.15;;
53497;SDS011;39382;47.168;16.008;2023-03-01T01:33:40;23.90;;;9.85;;
53497;SDS011;39382;47.168;16.008;2023-03-01T01:36:06;18.88;;;9.57;;
53497;SDS011;39382;47.168;16.008;2023-03-01T01:38:33;19.23;;;8.48;;
53497;SDS011;39382;47.168;16.008;2023-03-01T01:41:00;20.83;;;9.40;;
53497;SDS011;39382;47.168;16.008;2023-03-01T01:43:30;22.90;;;9.30;;
53497;SDS011;39382;47.168;16.008;2023-03-01T01:46:02;17.70;;;8.38;;
53497;SDS011;39382;47.168;16.008;2023-03-01T01:48:56;22.35;;;9.55;;
53497;SDS011;39382;47.168;16.008;2023-03-01T01:51:33;19.73;;;8.27;;
53497;SDS011;39382;47.168;16.008;2023-03-01T01:54:05;17.50;;;7.75;;
53497;SDS011;39382;47.168;16.008;2023-03-01T01:56:37;18.65;;;8.32;;
53497;SDS011;39382;47.168;16.008;2023-03-01T01:59:06;19.10;;;8.82;;
53497;SDS011;39382;47.168;16.008;2023-03-01T02:01:32;19.48;;;9.65;;
53497;SDS011;39382;47.168;16.008;2023-03-01T02:03:58;16.85;;;7.88;;
53497;SDS011;39382;47.168;16.008;2023-03-01T02:09:00;19.63;;;8.65;;
53497;SDS011;39382;47.168;16.008;2023-03-01T02:11:30;21.75;;;9.98;;
53497;SDS011;39382;47.168;16.008;2023-03-01T02:13:57;22.05;;;9.45;;
53497;SDS011;39382;47.168;16.008;2023-03-01T02:16:23;19.23;;;10.23;;
53497;SDS011;39382;47.168;16.008;2023-03-01T02:18:50;19.90;;;8.90;;
53497;SDS011;39382;47.168;16.008;2023-03-01T02:23:50;20.52;;;8.63;;
53497;SDS011;39382;47.168;16.008;2023-03-01T02:29:19;18.10;;;7.93;;
53497;SDS011;39382;47.168;16.008;2023-03-01T02:31:47;16.88;;;7.57;;
53497;SDS011;39382;47.168;16.008;2023-03-01T02:34:15;15.75;;;8.13;;
53497;SDS011;39382;47.168;16.008;2023-03-01T02:36:45;18.08;;;7.65;;
53497;SDS011;39382;47.168;16.008;2023-03-01T02:39:34;19.55;;;8.10;;
53497;SDS011;39382;47.168;16.008;2023-03-01T02:42:07;23.17;;;8.80;;
53497;SDS011;39382;47.168;16.008;2023-03-01T02:44:37;21.15;;;7.68;;
53497;SDS011;39382;47.168;16.008;2023-03-01T02:47:03;20.00;;;9.65;;
53497;SDS011;39382;47.168;16.008;2023-03-01T02:49:31;23.17;;;9.70;;
53497;SDS011;39382;47.168;16.008;2023-03-01T02:55:13;21.42;;;7.93;;
53497;SDS011;39382;47.168;16.008;2023-03-01T02:57:42;22.40;;;8.60;;
53497;SDS011;39382;47.168;16.008;2023-03-01T03:00:13;18.75;;;8.48;;
53497;SDS011;39382;47.168;16.008;2023-03-01T03:07:43;20.05;;;8.57;;
53497;SDS011;39382;47.168;16.008;2023-03-01T03:10:12;19.20;;;8.40;;
53497;SDS011;39382;47.168;16.008;2023-03-01T03:12:44;21.23;;;9.50;;
53497;SDS011;39382;47.168;16.008;2023-03-01T03:15:17;21.98;;;8.93;;
53497;SDS011;39382;47.168;16.008;2023-03-01T03:17:45;19.00;;;8.65;;
53497;SDS011;39382;47.168;16.008;2023-03-01T03:20:11;18.65;;;8.10;;
53497;SDS011;39382;47.168;16.008;2023-03-01T03:22:44;15.57;;;8.63;;
53497;SDS011;39382;47.168;16.008;2023-03-01T03:25:13;18.80;;;8.05;;
53497;SDS011;39382;47.168;16.008;2023-03-01T03:27:41;14.63;;;8.70;;
53497;SDS011;39382;47.168;16.008;2023-03-01T03:30:09;17.83;;;8.70;;
53497;SDS011;39382;47.168;16.008;2023-03-01T03:32:41;20.02;;;7.75;;
53497;SDS011;39382;47.168;16.008;2023-03-01T03:35:15;18.23;;;7.93;;
53497;SDS011;39382;47.168;16.008;2023-03-01T03:37:41;19.27;;;8.15;;
53497;SDS011;39382;47.168;16.008;2023-03-01T03:40:26;19.38;;;7.97;;
53497;SDS011;39382;47.168;16.008;2023-03-01T03:42:53;20.25;;;8.60;;
53497;SDS011;39382;47.168;16.008;2023-03-01T03:45:19;14.80;;;7.78;;
53497;SDS011;39382;47.168;16.008;2023-03-01T03:47:45;17.45;;;8.30;;
53497;SDS011;39382;47.168;16.008;2023-03-01T03:50:11;20.77;;;8.90;;
53497;SDS011;39382;47.168;16.008;2023-03-01T03:52:38;24.50;;;8.68;;
53497;SDS011;39382;47.168;16.008;2023-03-01T03:55:04;15.57;;;7.57;;
53497;SDS011;39382;47.168;16.008;2023-03-01T03:57:41;23.40;;;7.90;;
53497;SDS011;39382;47.168;16.008;2023-03-01T04:00:09;17.15;;;7.70;;
53497;SDS011;39382;47.168;16.008;2023-03-01T04:02:40;16.15;;;8.20;;
53497;SDS011;39382;47.168;16.008;2023-03-01T04:05:10;18.10;;;8.27;;
53497;SDS011;39382;47.168;16.008;2023-03-01T04:07:37;14.23;;;7.65;;
53497;SDS011;39382;47.168;16.008;2023-03-01T04:10:04;18.35;;;8.00;;
53497;SDS011;39382;47.168;16.008;2023-03-01T04:12:31;18.52;;;8.27;;
53497;SDS011;39382;47.168;16.008;2023-03-01T04:14:59;19.70;;;9.68;;
53497;SDS011;39382;47.168;16.008;2023-03-01T04:17:25;18.92;;;9.25;;
53497;SDS011;39382;47.168;16.008;2023-03-01T04:19:51;23.45;;;9.07;;
53497;SDS011;39382;47.168;16.008;2023-03-01T04:22:16;17.83;;;8.25;;
53497;SDS011;39382;47.168;16.008;2023-03-01T04:24:43;17.15;;;8.30;;
53497;SDS011;39382;47.168;16.008;2023-03-01T04:27:10;14.55;;;8.60;;
53497;SDS011;39382;47.168;16.008;2023-03-01T04:29:36;19.15;;;8.27;;
53497;SDS011;39382;47.168;16.008;2023-03-01T04:32:02;15.52;;;7.82;;
53497;SDS011;39382;47.168;16.008;2023-03-01T04:34:28;21.17;;;8.30;;
53497;SDS011;39382;47.168;16.008;2023-03-01T04:36:55;16.98;;;8.63;;
53497;SDS011;39382;47.168;16.008;2023-03-01T04:39:20;16.38;;;7.97;;
53497;SDS011;39382;47.168;16.008;2023-03-01T04:41:46;17.67;;;7.97;;
53497;SDS011;39382;47.168;16.008;2023-03-01T04:44:12;24.42;;;7.80;;
53497;SDS011;39382;47.168;16.008;2023-03-01T04:46:38;21.48;;;9.65;;
53497;SDS011;39382;47.168;16.008;2023-03-01T04:49:03;22.17;;;7.95;;
53497;SDS011;39382;47.168;16.008;2023-03-01T04:51:30;20.15;;;8.27;;
53497;SDS011;39382;47.168;16.008;2023-03-01T04:53:57;20.95;;;8.40;;
53497;SDS011;39382;47.168;16.008;2023-03-01T04:56:23;17.98;;;7.53;;
53497;SDS011;39382;47.168;16.008;2023-03-01T04:58:49;18.95;;;7.95;;
53497;SDS011;39382;47.168;16.008;2023-03-01T05:01:18;13.70;;;8.20;;
53497;SDS011;39382;47.168;16.008;2023-03-01T05:03:47;18.00;;;8.02;;
53497;SDS011;39382;47.168;16.008;2023-03-01T05:06:14;16.60;;;7.85;;
53497;SDS011;39382;47.168;16.008;2023-03-01T05:08:42;15.35;;;8.45;;
53497;SDS011;39382;47.168;16.008;2023-03-01T05:11:08;17.27;;;8.45;;
53497;SDS011;39382;47.168;16.008;2023-03-01T05:13:35;16.70;;;7.88;;
53497;SDS011;39382;47.168;16.008;2023-03-01T05:16:03;17.83;;;8.80;;
53497;SDS011;39382;47.168;16.008;2023-03-01T05:18:30;16.52;;;8.00;;
53497;SDS011;39382;47.168;16.008;2023-03-01T05:21:05;17.60;;;9.38;;
53497;SDS011;39382;47.168;16.008;2023-03-01T05:23:35;18.63;;;8.52;;
53497;SDS011;39382;47.168;16.008;2023-03-01T05:26:02;23.35;;;9.95;;
53497;SDS011;39382;47.168;16.008;2023-03-01T05:28:29;16.63;;;9.35;;
53497;SDS011;39382;47.168;16.008;2023-03-01T05:30:55;20.80;;;8.60;;
53497;SDS011;39382;47.168;16.008;2023-03-01T05:33:22;16.55;;;8.88;;
53497;SDS011;39382;47.168;16.008;2023-03-01T05:35:49;18.55;;;8.75;;
53497;SDS011;39382;47.168;16.008;2023-03-01T05:38:17;19.58;;;9.05;;
53497;SDS011;39382;47.168;16.008;2023-03-01T05:40:43;19.05;;;8.02;;
53497;SDS011;39382;47.168;16.008;2023-03-01T05:43:10;24.42;;;9.48;;
53497;SDS011;39382;47.168;16.008;2023-03-01T05:45:37;25.73;;;10.68;;
53497;SDS011;39382;47.168;16.008;2023-03-01T05:48:03;18.85;;;9.05;;
53497;SDS011;39382;47.168;16.008;2023-03-01T05:50:33;18.23;;;8.45;;
53497;SDS011;39382;47.168;16.008;2023-03-01T05:53:01;19.58;;;9.05;;
53497;SDS011;39382;47.168;16.008;2023-03-01T05:55:30;28.58;;;13.48;;
53497;SDS011;39382;47.168;16.008;2023-03-01T05:58:03;24.48;;;10.52;;
53497;SDS011;39382;47.168;16.008;2023-03-01T06:00:31;23.10;;;10.40;;
53497;SDS011;39382;47.168;16.008;2023-03-01T06:02:57;35.38;;;16.92;;
53497;SDS011;39382;47.168;16.008;2023-03-01T06:05:24;24.52;;;15.13;;
53497;SDS011;39382;47.168;16.008;2023-03-01T06:07:50;17.58;;;9.30;;
53497;SDS011;39382;47.168;16.008;2023-03-01T06:10:17;21.02;;;8.90;;
53497;SDS011;39382;47.168;16.008;2023-03-01T06:12:43;20.85;;;8.95;;
53497;SDS011;39382;47.168;16.008;2023-03-01T06:15:09;22.10;;;9.65;;
53497;SDS011;39382;47.168;16.008;2023-03-01T06:17:37;18.55;;;8.18;;
53497;SDS011;39382;47.168;16.008;2023-03-01T06:20:06;60.50;;;18.30;;
53497;SDS011;39382;47.168;16.008;2023-03-01T06:22:42;54.28;;;18.23;;
53497;SDS011;39382;47.168;16.008;2023-03-01T06:25:09;24.48;;;11.18;;
53497;SDS011;39382;47.168;16.008;2023-03-01T06:27:35;26.85;;;10.63;;
53497;SDS011;39382;47.168;16.008;2023-03-01T06:30:01;18.02;;;8.70;;
53497;SDS011;39382;47.168;16.008;2023-03-01T06:32:27;22.40;;;10.30;;
53497;SDS011;39382;47.168;16.008;2023-03-01T06:34:53;20.52;;;9.43;;
53497;SDS011;39382;47.168;16.008;2023-03-01T06:37:19;21.35;;;10.02;;
53497;SDS011;39382;47.168;16.008;2023-03-01T06:39:44;25.27;;;9.18;;
53497;SDS011;39382;47.168;16.008;2023-03-01T06:42:10;17.00;;;8.82;;
53497;SDS011;39382;47.168;16.008;2023-03-01T06:44:36;19.55;;;7.95;;
53497;SDS011;39382;47.168;16.008;2023-03-01T06:47:02;17.35;;;8.30;;
53497;SDS011;39382;47.168;16.008;2023-03-01T06:49:28;21.38;;;9.30;;
53497;SDS011;39382;47.168;16.008;2023-03-01T06:51:55;13.70;;;8.70;;
53497;SDS011;39382;47.168;16.008;2023-03-01T06:54:21;21.33;;;9.18;;
53497;SDS011;39382;47.168;16.008;2023-03-01T06:56:49;24.25;;;10.60;;
53497;SDS011;39382;47.168;16.008;2023-03-01T06:59:15;23.75;;;10.55;;
53497;SDS011;39382;47.168;16.008;2023-03-01T07:01:41;18.98;;;8.80;;
53497;SDS011;39382;47.168;16.008;2023-03-01T07:04:08;24.63;;;8.82;;
53497;SDS011;39382;47.168;16.008;2023-03-01T07:06:34;13.18;;;7.90;;
53497;SDS011;39382;47.168;16.008;2023-03-01T07:09:00;19.35;;;9.57;;
53497;SDS011;39382;47.168;16.008;2023-03-01T07:11:25;15.82;;;8.43;;
53497;SDS011;39382;47.168;16.008;2023-03-01T07:13:51;20.10;;;10.50;;
53497;SDS011;39382;47.168;16.008;2023-03-01T07:16:16;21.00;;;9.82;;
53497;SDS011;39382;47.168;16.008;2023-03-01T07:18:42;19.52;;;9.38;;
53497;SDS011;39382;47.168;16.008;2023-03-01T07:21:08;19.38;;;9.90;;
53497;SDS011;39382;47.168;16.008;2023-03-01T07:23:36;15.45;;;8.20;;
53497;SDS011;39382;47.168;16.008;2023-03-01T07:26:02;26.52;;;9.93;;
53497;SDS011;39382;47.168;16.008;2023-03-01T07:28:27;17.50;;;8.80;;
53497;SDS011;39382;47.168;16.008;2023-03-01T07:30:54;19.65;;;7.97;;
53497;SDS011;39382;47.168;16.008;2023-03-01T07:33:19;17.08;;;7.47;;
53497;SDS011;39382;47.168;16.008;2023-03-01T07:35:45;21.67;;;8.93;;
53497;SDS011;39382;47.168;16.008;2023-03-01T07:38:11;17.42;;;8.00;;
53497;SDS011;39382;47.168;16.008;2023-03-01T07:40:37;16.45;;;9.27;;
53497;SDS011;39382;47.168;16.008;2023-03-01T07:43:02;19.63;;;8.18;;
53497;SDS011;39382;47.168;16.008;2023-03-01T07:45:28;18.13;;;9.65;;
53497;SDS011;39382;47.168;16.008;2023-03-01T07:47:54;17.83;;;9.65;;
53497;SDS011;39382;47.168;16.008;2023-03-01T07:50:21;17.63;;;8.20;;
53497;SDS011;39382;47.168;16.008;2023-03-01T07:52:48;20.27;;;9.82;;
53497;SDS011;39382;47.168;16.008;2023-03-01T07:55:14;20.17;;;10.48;;
53497;SDS011;39382;47.168;16.008;2023-03-01T07:57:41;22.30;;;9.23;;
53497;SDS011;39382;47.168;16.008;2023-03-01T08:00:09;18.30;;;8.15;;
53497;SDS011;39382;47.168;16.008;2023-03-01T08:02:36;17.05;;;9.40;;
53497;SDS011;39382;47.168;16.008;2023-03-01T08:05:02;20.17;;;9.60;;
53497;SDS011;39382;47.168;16.008;2023-03-01T08:07:28;16.23;;;9.13;;
53497;SDS011;39382;47.168;16.008;2023-03-01T08:09:53;18.45;;;9.65;;
53497;SDS011;39382;47.168;16.008;2023-03-01T08:12:19;13.82;;;8.13;;
53497;SDS011;39382;47.168;16.008;2023-03-01T08:14:44;21.25;;;9.07;;
53497;SDS011;39382;47.168;16.008;2023-03-01T08:17:10;16.58;;;9.45;;
53497;SDS011;39382;47.168;16.008;2023-03-01T08:19:39;21.75;;;10.02;;
53497;SDS011;39382;47.168;16.008;2023-03-01T08:22:04;22.80;;;8.85;;
53497;SDS011;39382;47.168;16.008;2023-03-01T08:24:30;20.60;;;9.10;;
53497;SDS011;39382;47.168;16.008;2023-03-01T08:26:56;15.80;;;9.30;;
53497;SDS011;39382;47.168;16.008;2023-03-01T08:29:21;12.50;;;7.47;;
53497;SDS011;39382;47.168;16.008;2023-03-01T08:31:49;16.15;;;8.10;;
53497;SDS011;39382;47.168;16.008;2023-03-01T08:34:16;23.30;;;8.73;;
53497;SDS011;39382;47.168;16.008;2023-03-01T08:36:43;16.23;;;8.02;;
53497;SDS011;39382;47.168;16.008;2023-03-01T08:39:11;17.23;;;8.95;;
53497;SDS011;39382;47.168;16.008;2023-03-01T08:41:38;16.98;;;8.02;;
53497;SDS011;39382;47.168;16.008;2023-03-01T08:44:04;18.75;;;7.88;;
53497;SDS011;39382;47.168;16.008;2023-03-01T08:46:35;13.07;;;8.15;;
53497;SDS011;39382;47.168;16.008;2023-03-01T08:49:03;12.88;;;8.32;;
53497;SDS011;39382;47.168;16.008;2023-03-01T08:51:30;15.65;;;8.30;;
53497;SDS011;39382;47.168;16.008;2023-03-01T08:54:01;14.27;;;7.38;;
53497;SDS011;39382;47.168;16.008;2023-03-01T08:56:31;14.85;;;7.80;;
53497;SDS011;39382;47.168;16.008;2023-03-01T08:58:56;17.15;;;7.65;;
53497;SDS011;39382;47.168;16.008;2023-03-01T09:01:22;15.48;;;7.85;;
53497;SDS011;39382;47.168;16.008;2023-03-01T09:03:48;14.60;;;8.68;;
53497;SDS011;39382;47.168;16.008;2023-03-01T09:06:14;16.52;;;8.27;;
53497;SDS011;39382;47.168;16.008;2023-03-01T09:08:42;11.23;;;7.15;;
53497;SDS011;39382;47.168;16.008;2023-03-01T09:11:10;13.25;;;7.55;;
53497;SDS011;39382;47.168;16.008;2023-03-01T09:13:37;14.93;;;7.75;;
53497;SDS011;39382;47.168;16.008;2023-03-01T09:16:03;18.92;;;8.30;;
53497;SDS011;39382;47.168;16.008;2023-03-01T09:18:30;16.88;;;8.07;;
53497;SDS011;39382;47.168;16.008;2023-03-01T09:21:01;13.45;;;7.55;;
53497;SDS011;39382;47.168;16.008;2023-03-01T09:23:27;14.27;;;6.38;;
53497;SDS011;39382;47.168;16.008;2023-03-01T09:25:53;15.85;;;7.03;;
53497;SDS011;39382;47.168;16.008;2023-03-01T09:28:18;15.23;;;6.53;;
53497;SDS011;39382;47.168;16.008;2023-03-01T09:30:44;12.20;;;6.85;;
53497;SDS011;39382;47.168;16.008;2023-03-01T09:33:10;11.95;;;6.93;;
53497;SDS011;39382;47.168;16.008;2023-03-01T09:35:39;16.77;;;7.05;;
53497;SDS011;39382;47.168;16.008;2023-03-01T09:38:10;14.27;;;7.75;;
53497;SDS011;39382;47.168;16.008;2023-03-01T09:40:37;11.25;;;6.25;;
53497;SDS011;39382;47.168;16.008;2023-03-01T09:43:08;15.68;;;6.85;;
53497;SDS011;39382;47.168;16.008;2023-03-01T09:45:40;15.88;;;6.82;;
53497;SDS011;39382;47.168;16.008;2023-03-01T09:48:11;17.58;;;7.25;;
53497;SDS011;39382;47.168;16.008;2023-03-01T09:50:41;14.45;;;7.53;;
53497;SDS011;39382;47.168;16.008;2023-03-01T09:53:16;10.27;;;6.45;;
53497;SDS011;39382;47.168;16.008;2023-03-01T10:04:27;12.32;;;6.70;;
53497;SDS011;39382;47.168;16.008;2023-03-01T10:07:13;15.02;;;6.55;;
53497;SDS011;39382;47.168;16.008;2023-03-01T10:09:51;13.63;;;5.55;;
53497;SDS011;39382;47.168;16.008;2023-03-01T10:12:18;19.38;;;7.32;;
53497;SDS011;39382;47.168;16.008;2023-03-01T10:14:53;23.27;;;7.53;;
53497;SDS011;39382;47.168;16.008;2023-03-01T10:17:33;14.40;;;6.70;;
53497;SDS011;39382;47.168;16.008;2023-03-01T10:20:10;14.63;;;6.95;;
53497;SDS011;39382;47.168;16.008;2023-03-01T10:22:46;19.67;;;7.30;;
53497;SDS011;39382;47.168;16.008;2023-03-01T10:25:15;13.07;;;6.82;;
53497;SDS011;39382;47.168;16.008;2023-03-01T10:27:49;13.38;;;7.28;;
53497;SDS011;39382;47.168;16.008;2023-03-01T10:30:21;11.60;;;6.22;;
53497;SDS011;39382;47.168;16.008;2023-03-01T10:32:57;12.55;;;6.65;;
53497;SDS011;39382;47.168;16.008;2023-03-01T10:35:25;15.50;;;7.30;;
53497;SDS011;39382;47.168;16.008;2023-03-01T10:38:06;14.27;;;6.78;;
53497;SDS011;39382;47.168;16.008;2023-03-01T10:40:34;13.75;;;7.60;;
53497;SDS011;39382;47.168;16.008;2023-03-01T10:43:02;13.57;;;7.13;;
53497;SDS011;39382;47.168;16.008;2023-03-01T10:51:13;27.92;;;8.38;;
53497;SDS011;39382;47.168;16.008;2023-03-01T10:53:42;18.48;;;7.65;;
53497;SDS011;39382;47.168;16.008;2023-03-01T10:56:14;15.50;;;6.03;;
53497;SDS011;39382;47.168;16.008;2023-03-01T11:01:30;22.45;;;7.60;;
53497;SDS011;39382;47.168;16.008;2023-03-01T11:06:33;14.13;;;7.13;;
53497;SDS011;39382;47.168;16.008;2023-03-01T11:09:14;15.57;;;7.38;;
53497;SDS011;39382;47.168;16.008;2023-03-01T11:11:44;21.58;;;7.10;;
53497;SDS011;39382;47.168;16.008;2023-03-01T11:14:18;10.93;;;6.07;;
53497;SDS011;39382;47.168;16.008;2023-03-01T11:17:00;12.88;;;6.78;;
53497;SDS011;39382;47.168;16.008;2023-03-01T11:19:28;10.95;;;6.28;;
53497;SDS011;39382;47.168;16.008;2023-03-01T11:22:05;10.95;;;5.18;;
53497;SDS011;39382;47.168;16.008;2023-03-01T11:24:45;17.88;;;7.60;;
53497;SDS011;39382;47.168;16.008;2023-03-01T11:27:16;10.18;;;6.07;;
53497;SDS011;39382;47.168;16.008;2023-03-01T11:30:00;15.18;;;6.55;;
53497;SDS011;39382;47.168;16.008;2023-03-01T11:32:35;15.15;;;7.40;;
53497;SDS011;39382;47.168;16.008;2023-03-01T11:40:21;12.65;;;6.72;;
53497;SDS011;39382;47.168;16.008;2023-03-01T11:42:53;11.93;;;6.63;;
53497;SDS011;39382;47.168;16.008;2023-03-01T11:45:38;16.85;;;7.38;;
53497;SDS011;39382;47.168;16.008;2023-03-01T11:50:56;21.95;;;6.68;;
53497;SDS011;39382;47.168;16.008;2023-03-01T12:15:39;13.65;;;6.70;;
53497;SDS011;39382;47.168;16.008;2023-03-01T12:37:51;14.23;;;6.28;;
53497;SDS011;39382;47.168;16.008;2023-03-01T12:49:41;10.68;;;5.40;;
53497;SDS011;39382;47.168;16.008;2023-03-01T12:52:17;11.85;;;6.00;;
53497;SDS011;39382;47.168;16.008;2023-03-01T12:54:59;11.70;;;6.13;;
53497;SDS011;39382;47.168;16.008;2023-03-01T12:57:41;10.85;;;6.53;;
53497;SDS011;39382;47.168;16.008;2023-03-01T13:05:24;12.88;;;7.10;;
53497;SDS011;39382;47.168;16.008;2023-03-01T13:11:20;10.30;;;6.25;;
53497;SDS011;39382;47.168;16.008;2023-03-01T13:13:48;12.10;;;6.70;;
53497;SDS011;39382;47.168;16.008;2023-03-01T13:19:14;9.07;;;5.68;;
53497;SDS011;39382;47.168;16.008;2023-03-01T13:21:46;18.30;;;6.47;;
53497;SDS011;39382;47.168;16.008;2023-03-01T13:24:34;16.52;;;6.60;;
53497;SDS011;39382;47.168;16.008;2023-03-01T13:29:46;13.18;;;7.05;;
53497;SDS011;39382;47.168;16.008;2023-03-01T13:32:27;12.93;;;5.88;;
53497;SDS011;39382;47.168;16.008;2023-03-01T13:35:41;10.88;;;6.80;;
53497;SDS011;39382;47.168;16.008;2023-03-01T13:37:46;13.93;;;5.65;;
53497;SDS011;39382;47.168;16.008;2023-03-01T13:42:50;11.63;;;6.50;;
53497;SDS011;39382;47.168;16.008;2023-03-01T13:47:58;9.63;;;5.25;;
53497;SDS011;39382;47.168;16.008;2023-03-01T13:50:28;11.00;;;6.35;;
53497;SDS011;39382;47.168;16.008;2023-03-01T13:53:09;10.00;;;5.53;;
53497;SDS011;39382;47.168;16.008;2023-03-01T13:55:41;11.70;;;7.25;;
53497;SDS011;39382;47.168;16.008;2023-03-01T14:01:03;11.05;;;5.60;;
53497;SDS011;39382;47.168;16.008;2023-03-01T14:03:30;11.88;;;5.70;;
53497;SDS011;39382;47.168;16.008;2023-03-01T14:06:04;9.43;;;5.43;;
53497;SDS011;39382;47.168;16.008;2023-03-01T14:08:33;14.60;;;6.00;;
53497;SDS011;39382;47.168;16.008;2023-03-01T14:19:17;8.82;;;5.13;;
53497;SDS011;39382;47.168;16.008;2023-03-01T14:27:38;7.95;;;4.63;;
53497;SDS011;39382;47.168;16.008;2023-03-01T14:30:15;9.65;;;4.65;;
53497;SDS011;39382;47.168;16.008;2023-03-01T14:33:00;7.88;;;5.10;;
53497;SDS011;39382;47.168;16.008;2023-03-01T14:35:29;10.75;;;5.10;;
53497;SDS011;39382;47.168;16.008;2023-03-01T14:37:57;7.53;;;4.35;;
53497;SDS011;39382;47.168;16.008;2023-03-01T14:40:27;9.73;;;4.35;;
53497;SDS011;39382;47.168;16.008;2023-03-01T14:42:56;11.13;;;4.43;;
53497;SDS011;39382;47.168;16.008;2023-03-01T14:45:25;10.60;;;4.25;;
53497;SDS011;39382;47.168;16.008;2023-03-01T14:47:51;11.48;;;4.88;;
53497;SDS011;39382;47.168;16.008;2023-03-01T14:50:23;9.43;;;4.97;;
53497;SDS011;39382;47.168;16.008;2023-03-01T14:52:53;6.88;;;3.67;;
53497;SDS011;39382;47.168;16.008;2023-03-01T14:55:26;7.70;;;4.15;;
53497;SDS011;39382;47.168;16.008;2023-03-01T14:57:52;7.95;;;5.00;;
53497;SDS011;39382;47.168;16.008;2023-03-01T15:00:22;12.32;;;5.30;;
53497;SDS011;39382;47.168;16.008;2023-03-01T15:02:51;6.72;;;4.75;;
53497;SDS011;39382;47.168;16.008;2023-03-01T15:05:29;13.45;;;6.15;;
53497;SDS011;39382;47.168;16.008;2023-03-01T15:07:58;12.00;;;5.93;;
53497;SDS011;39382;47.168;16.008;2023-03-01T15:10:29;14.13;;;6.18;;
53497;SDS011;39382;47.168;16.008;2023-03-01T15:13:43;7.93;;;4.78;;
53497;SDS011;39382;47.168;16.008;2023-03-01T15:15:47;10.25;;;6.03;;
53497;SDS011;39382;47.168;16.008;2023-03-01T15:18:22;10.77;;;5.65;;
53497;SDS011;39382;47.168;16.008;2023-03-01T15:20:53;10.95;;;5.15;;
53497;SDS011;39382;47.168;16.008;2023-03-01T15:28:31;11.68;;;5.50;;
53497;SDS011;39382;47.168;16.008;2023-03-01T15:31:19;10.88;;;5.43;;
53497;SDS011;39382;47.168;16.008;2023-03-01T15:33:46;9.43;;;4.85;;
53497;SDS011;39382;47.168;16.008;2023-03-01T15:39:04;10.05;;;5.72;;
53497;SDS011;39382;47.168;16.008;2023-03-01T15:41:45;11.68;;;5.70;;
53497;SDS011;39382;47.168;16.008;2023-03-01T15:44:16;11.05;;;5.05;;
53497;SDS011;39382;47.168;16.008;2023-03-01T15:46:49;7.63;;;4.03;;
53497;SDS011;39382;47.168;16.008;2023-03-01T15:52:05;8.07;;;4.55;;
53497;SDS011;39382;47.168;16.008;2023-03-01T15:54:58;8.68;;;4.97;;
53497;SDS011;39382;47.168;16.008;2023-03-01T15:57:26;8.85;;;4.78;;
53497;SDS011;39382;47.168;16.008;2023-03-01T15:59:51;6.85;;;4.22;;
53497;SDS011;39382;47.168;16.008;2023-03-01T16:02:17;11.38;;;4.93;;
53497;SDS011;39382;47.168;16.008;2023-03-01T16:04:45;8.23;;;4.95;;
53497;SDS011;39382;47.168;16.008;2023-03-01T16:07:11;8.90;;;4.93;;
53497;SDS011;39382;47.168;16.008;2023-03-01T16:09:37;11.02;;;6.10;;
53497;SDS011;39382;47.168;16.008;2023-03-01T16:12:03;9.63;;;5.35;;
53497;SDS011;39382;47.168;16.008;2023-03-01T16:14:28;7.75;;;4.75;;
53497;SDS011;39382;47.168;16.008;2023-03-01T16:16:54;9.15;;;5.22;;
53497;SDS011;39382;47.168;16.008;2023-03-01T16:19:20;14.07;;;7.93;;
53497;SDS011;39382;47.168;16.008;2023-03-01T16:21:45;26.23;;;11.77;;
53497;SDS011;39382;47.168;16.008;2023-03-01T16:24:13;22.88;;;10.18;;
53497;SDS011;39382;47.168;16.008;2023-03-01T16:26:39;24.63;;;13.30;;
53497;SDS011;39382;47.168;16.008;2023-03-01T16:29:05;18.73;;;10.20;;
53497;SDS011;39382;47.168;16.008;2023-03-01T16:31:31;16.95;;;8.80;;
53497;SDS011;39382;47.168;16.008;2023-03-01T16:33:57;11.45;;;6.38;;
53497;SDS011;39382;47.168;16.008;2023-03-01T16:36:24;18.70;;;7.88;;
53497;SDS011;39382;47.168;16.008;2023-03-01T16:38:53;14.45;;;7.20;;
53497;SDS011;39382;47.168;16.008;2023-03-01T16:41:20;15.43;;;5.90;;
53497;SDS011;39382;47.168;16.008;2023-03-01T16:43:47;9.93;;;5.50;;
53497;SDS011;39382;47.168;16.008;2023-03-01T16:46:18;11.40;;;6.05;;
53497;SDS011;39382;47.168;16.008;2023-03-01T16:48:45;10.10;;;5.35;;
53497;SDS011;39382;47.168;16.008;2023-03-01T16:51:12;13.80;;;5.78;;
53497;SDS011;39382;47.168;16.008;2023-03-01T16:53:38;10.93;;;5.38;;
53497;SDS011;39382;47.168;16.008;2023-03-01T16:56:05;9.65;;;5.43;;
53497;SDS011;39382;47.168;16.008;2023-03-01T16:58:32;10.75;;;5.93;;